createdAt,value
2023-05-21T00:00:00.071Z,3.55
2023-05-21T00:02:27.042Z,4.05
2023-05-21T00:04:53.970Z,4.00
2023-05-21T00:07:20.873Z,4.20
2023-05-21T00:09:47.774Z,4.70
2023-05-21T00:12:14.650Z,5.38
2023-05-21T00:14:41.617Z,5.20
2023-05-21T00:17:08.581Z,4.63
2023-05-21T00:19:35.550Z,4.85
2023-05-21T00:22:02.500Z,4.75
2023-05-21T00:24:29.657Z,6.95
2023-05-21T00:26:56.667Z,5.35
2023-05-21T00:29:24.086Z,5.03
2023-05-21T00:31:51.061Z,5.95
2023-05-21T00:34:18.056Z,7.00
2023-05-21T00:36:46.252Z,7.40
2023-05-21T00:39:13.896Z,6.32
2023-05-21T00:41:40.855Z,6.03
2023-05-21T00:44:07.754Z,5.28
2023-05-21T00:46:34.650Z,5.38
2023-05-21T00:49:01.619Z,5.32
2023-05-21T00:51:28.507Z,4.85
2023-05-21T00:53:55.544Z,5.15
2023-05-21T00:56:24.068Z,4.88
2023-05-21T00:58:51.382Z,4.40
2023-05-21T01:01:18.472Z,4.63
2023-05-21T01:03:45.506Z,3.92
2023-05-21T01:06:12.544Z,3.78
2023-05-21T01:08:39.446Z,4.15
2023-05-21T01:11:07.070Z,3.00
2023-05-21T01:13:35.969Z,2.90
2023-05-21T01:16:03.105Z,3.05
2023-05-21T01:18:30.100Z,2.75
2023-05-21T01:20:57.096Z,2.67
2023-05-21T01:23:24.135Z,1.85
2023-05-21T01:25:51.175Z,3.13
2023-05-21T01:28:18.096Z,1.67
2023-05-21T01:30:45.073Z,1.70
2023-05-21T01:33:40.324Z,2.10
2023-05-21T01:36:21.449Z,2.08
2023-05-21T01:39:09.509Z,2.17
2023-05-21T01:41:38.771Z,2.58
2023-05-21T01:44:05.646Z,3.15
2023-05-21T01:46:33.638Z,2.70
2023-05-21T01:49:00.563Z,4.00
2023-05-21T01:51:27.500Z,3.17
2023-05-21T01:53:54.372Z,3.42
2023-05-21T01:56:21.320Z,4.85
2023-05-21T01:58:48.180Z,3.55
2023-05-21T02:01:15.086Z,3.47
2023-05-21T02:03:42.082Z,3.30
2023-05-21T02:06:09.058Z,4.88
2023-05-21T02:08:35.947Z,3.15
2023-05-21T02:11:02.888Z,2.65
2023-05-21T02:13:29.853Z,2.72
2023-05-21T02:15:56.872Z,3.10
2023-05-21T02:18:23.832Z,2.97
2023-05-21T02:20:50.921Z,3.25
2023-05-21T02:23:17.858Z,2.85
2023-05-21T02:25:44.766Z,2.83
2023-05-21T02:28:11.684Z,3.50
2023-05-21T02:30:38.601Z,2.47
2023-05-21T02:33:05.593Z,2.70
2023-05-21T02:35:32.632Z,2.35
2023-05-21T02:37:59.679Z,2.75
2023-05-21T02:40:26.671Z,2.85
2023-05-21T02:42:53.584Z,3.20
2023-05-21T02:45:20.567Z,3.70
2023-05-21T02:47:47.611Z,4.13
2023-05-21T02:50:14.655Z,2.28
2023-05-21T02:52:41.641Z,2.13
2023-05-21T02:55:09.437Z,2.38
2023-05-21T02:57:36.360Z,2.20
2023-05-21T03:00:03.753Z,2.22
2023-05-21T03:02:30.796Z,2.15
2023-05-21T03:04:57.793Z,0.93
2023-05-21T03:07:24.676Z,0.57
2023-05-21T03:09:51.609Z,0.60
2023-05-21T03:12:18.555Z,2.25
2023-05-21T03:14:45.428Z,0.75
2023-05-21T03:17:12.562Z,1.95
2023-05-21T03:19:40.576Z,0.85
2023-05-21T03:22:07.593Z,1.30
2023-05-21T03:24:34.491Z,0.70
2023-05-21T03:27:01.444Z,1.92
2023-05-21T03:29:28.676Z,0.90
2023-05-21T03:31:55.707Z,1.55
2023-05-21T03:34:22.777Z,1.10
2023-05-21T03:36:50.333Z,1.13
2023-05-21T03:39:17.335Z,1.90
2023-05-21T03:41:44.313Z,2.08
2023-05-21T03:44:11.316Z,1.63
2023-05-21T03:46:38.384Z,3.30
2023-05-21T03:49:05.379Z,1.58
2023-05-21T03:51:32.353Z,1.77
2023-05-21T03:53:59.660Z,1.70
2023-05-21T03:56:26.551Z,1.92
2023-05-21T03:58:53.608Z,2.67
2023-05-21T04:01:20.532Z,1.75
2023-05-21T04:03:47.672Z,2.20
2023-05-21T04:06:14.813Z,2.08
2023-05-21T04:08:41.715Z,1.70
2023-05-21T04:11:08.683Z,2.17
2023-05-21T04:13:35.610Z,1.48
2023-05-21T04:16:02.638Z,3.53
2023-05-21T04:18:29.541Z,1.45
2023-05-21T04:20:56.455Z,1.92
2023-05-21T04:23:23.728Z,3.50
2023-05-21T04:25:51.153Z,2.03
2023-05-21T04:28:18.197Z,1.80
2023-05-21T04:30:45.340Z,1.67
2023-05-21T04:33:12.259Z,1.88
2023-05-21T04:35:39.209Z,1.40
2023-05-21T04:38:06.108Z,3.47
2023-05-21T04:40:33.092Z,1.77
2023-05-21T04:43:03.587Z,4.22
2023-05-21T04:45:30.575Z,1.63
2023-05-21T04:47:57.511Z,2.53
2023-05-21T04:50:24.513Z,3.22
2023-05-21T04:52:51.479Z,2.80
2023-05-21T04:55:18.490Z,3.20
2023-05-21T04:57:45.428Z,6.32
2023-05-21T05:00:13.323Z,1.95
2023-05-21T05:02:40.371Z,3.97
2023-05-21T05:05:07.583Z,2.13
2023-05-21T05:07:34.528Z,2.10
2023-05-21T05:10:01.460Z,2.83
2023-05-21T05:12:28.414Z,2.63
2023-05-21T05:14:55.371Z,1.40
2023-05-21T05:17:22.343Z,1.52
2023-05-21T05:19:49.244Z,2.45
2023-05-21T05:22:16.174Z,2.28
2023-05-21T05:24:43.075Z,4.03
2023-05-21T05:27:09.989Z,2.22
2023-05-21T05:29:36.923Z,1.17
2023-05-21T05:32:04.152Z,1.27
2023-05-21T05:34:31.028Z,1.50
2023-05-21T05:36:57.928Z,2.75
2023-05-21T05:39:24.857Z,1.50
2023-05-21T05:41:51.764Z,1.63
2023-05-21T05:44:18.677Z,3.75
2023-05-21T05:46:45.596Z,1.83
2023-05-21T05:49:12.623Z,2.38
2023-05-21T05:51:40.052Z,2.35
2023-05-21T05:54:07.005Z,1.95
2023-05-21T05:56:34.078Z,2.97
2023-05-21T05:59:00.991Z,1.35
2023-05-21T06:01:27.879Z,2.97
2023-05-21T06:03:54.843Z,2.03
2023-05-21T06:06:21.868Z,2.47
2023-05-21T06:08:48.926Z,2.35
2023-05-21T06:11:15.903Z,1.70
2023-05-21T06:13:43.282Z,1.90
2023-05-21T06:16:10.369Z,2.60
2023-05-21T06:18:38.146Z,1.33
2023-05-21T06:21:05.085Z,1.50
2023-05-21T06:23:32.045Z,2.67
2023-05-21T06:25:59.016Z,2.20
2023-05-21T06:28:25.938Z,1.65
2023-05-21T06:30:52.888Z,1.60
2023-05-21T06:33:19.825Z,2.25
2023-05-21T06:35:46.963Z,2.15
2023-05-21T06:38:13.907Z,2.70
2023-05-21T06:40:40.853Z,3.20
2023-05-21T06:43:07.766Z,2.30
2023-05-21T06:45:34.963Z,2.28
2023-05-21T06:48:02.095Z,2.95
2023-05-21T06:50:29.082Z,1.27
2023-05-21T06:52:55.980Z,1.58
2023-05-21T06:55:22.988Z,3.63
2023-05-21T06:57:49.911Z,1.10
2023-05-21T07:00:17.079Z,1.98
2023-05-21T07:02:44.072Z,2.72
2023-05-21T07:05:11.033Z,2.20
2023-05-21T07:07:37.956Z,3.13
2023-05-21T07:10:05.631Z,1.65
2023-05-21T07:12:32.551Z,1.30
2023-05-21T07:14:59.527Z,1.67
2023-05-21T07:17:26.498Z,1.35
2023-05-21T07:19:54.007Z,2.42
2023-05-21T07:22:20.929Z,2.88
2023-05-21T07:24:47.891Z,1.85
2023-05-21T07:27:25.417Z,1.60
2023-05-21T07:29:52.939Z,1.55
2023-05-21T07:32:19.862Z,2.28
2023-05-21T07:34:46.828Z,1.70
2023-05-21T07:37:13.850Z,1.70
2023-05-21T07:39:40.899Z,1.00
2023-05-21T07:42:07.890Z,1.83
2023-05-21T07:44:34.831Z,1.95
2023-05-21T07:47:01.779Z,1.55
2023-05-21T07:49:28.660Z,1.33
2023-05-21T07:51:55.726Z,1.10
2023-05-21T07:54:22.634Z,1.35
2023-05-21T07:56:49.575Z,2.17
2023-05-21T07:59:16.871Z,2.22
2023-05-21T08:01:43.855Z,1.40
2023-05-21T08:04:10.881Z,1.85
2023-05-21T08:06:37.885Z,3.90
2023-05-21T08:09:05.042Z,4.57
2023-05-21T08:11:31.975Z,4.10
2023-05-21T08:13:58.936Z,3.55
2023-05-21T08:16:25.941Z,2.45
2023-05-21T08:18:53.065Z,2.35
2023-05-21T08:21:20.042Z,4.60
2023-05-21T08:23:47.050Z,2.55
2023-05-21T08:26:13.931Z,1.85
2023-05-21T08:28:40.883Z,2.67
2023-05-21T08:31:07.832Z,3.13
2023-05-21T08:33:37.896Z,2.97
2023-05-21T08:36:08.118Z,3.10
2023-05-21T08:38:35.192Z,4.88
2023-05-21T08:41:02.132Z,4.13
2023-05-21T08:43:29.525Z,3.83
2023-05-21T08:45:57.268Z,4.32
2023-05-21T08:48:24.348Z,4.05
2023-05-21T08:50:53.099Z,3.58
2023-05-21T08:53:28.005Z,4.13
2023-05-21T08:55:56.223Z,4.18
2023-05-21T08:58:23.253Z,6.35
2023-05-21T09:00:50.344Z,4.22
2023-05-21T09:03:17.430Z,3.97
2023-05-21T09:05:45.279Z,3.83
2023-05-21T09:08:31.789Z,4.03
2023-05-21T09:10:58.780Z,4.38
2023-05-21T09:13:25.800Z,4.70
2023-05-21T09:15:52.830Z,6.10
2023-05-21T09:18:19.801Z,4.00
2023-05-21T09:20:46.737Z,4.47
2023-05-21T09:23:17.068Z,6.00
2023-05-21T09:25:48.259Z,5.70
2023-05-21T09:28:16.449Z,3.85
2023-05-21T09:30:47.412Z,3.25
2023-05-21T09:33:28.130Z,3.83
2023-05-21T09:35:55.200Z,2.88
2023-05-21T09:38:30.896Z,2.40
2023-05-21T09:40:58.314Z,2.97
2023-05-21T09:43:25.612Z,3.88
2023-05-21T09:45:57.308Z,2.05
2023-05-21T09:48:42.687Z,1.80
2023-05-21T09:51:17.115Z,2.08
2023-05-21T09:53:56.596Z,2.65
2023-05-21T09:56:28.128Z,1.60
2023-05-21T09:58:59.387Z,3.17
2023-05-21T10:01:26.957Z,1.60
2023-05-21T10:03:56.747Z,1.92
2023-05-21T10:06:31.194Z,2.85
2023-05-21T10:08:59.858Z,2.50
2023-05-21T10:11:30.633Z,1.90
2023-05-21T10:14:08.231Z,2.58
2023-05-21T10:16:36.101Z,2.28
2023-05-21T10:19:03.507Z,4.53
2023-05-21T10:21:30.650Z,1.80
2023-05-21T10:23:57.972Z,2.47
2023-05-21T10:26:25.172Z,3.45
2023-05-21T10:28:52.197Z,2.13
2023-05-21T10:31:20.107Z,2.25
2023-05-21T10:33:47.055Z,1.90
2023-05-21T10:36:15.668Z,2.28
2023-05-21T10:38:42.608Z,1.80
2023-05-21T10:41:09.590Z,1.85
2023-05-21T10:44:08.082Z,1.50
2023-05-21T10:47:02.686Z,2.35
2023-05-21T10:50:24.535Z,3.00
2023-05-21T10:53:21.652Z,2.25
2023-05-21T10:56:07.132Z,3.00
2023-05-21T10:59:24.141Z,3.22
2023-05-21T11:01:51.621Z,2.67
2023-05-21T11:04:28.158Z,2.75
2023-05-21T11:06:55.560Z,2.53
2023-05-21T11:09:22.806Z,2.20
2023-05-21T11:11:53.983Z,1.88
2023-05-21T11:14:36.827Z,2.80
2023-05-21T11:17:13.295Z,2.00
2023-05-21T11:19:46.401Z,2.75
2023-05-21T11:22:23.740Z,2.05
2023-05-21T11:24:51.720Z,1.75
2023-05-21T11:27:42.504Z,2.20
2023-05-21T11:30:17.978Z,2.72
2023-05-21T11:33:09.930Z,3.22
2023-05-21T11:35:59.208Z,2.53
2023-05-21T11:38:30.687Z,3.17
2023-05-21T11:41:03.210Z,3.70
2023-05-21T11:43:30.435Z,2.83
2023-05-21T11:45:57.387Z,2.78
2023-05-21T11:48:28.915Z,2.53
2023-05-21T11:50:56.900Z,2.28
2023-05-21T11:53:23.822Z,2.58
2023-05-21T11:55:50.776Z,4.53
2023-05-21T11:58:18.868Z,3.50
2023-05-21T12:00:45.774Z,2.80
2023-05-21T12:03:14.552Z,3.60
2023-05-21T12:05:48.577Z,2.85
2023-05-21T12:08:25.836Z,2.60
2023-05-21T12:10:59.472Z,2.30
2023-05-21T12:13:26.999Z,2.20
2023-05-21T12:15:56.969Z,3.83
2023-05-21T12:18:25.441Z,3.72
2023-05-21T12:20:52.423Z,11.43
2023-05-21T12:23:25.615Z,5.55
2023-05-21T12:25:52.572Z,4.22
2023-05-21T12:28:21.515Z,5.05
2023-05-21T12:30:48.595Z,5.88
2023-05-21T12:33:15.539Z,5.60
2023-05-21T12:35:42.531Z,5.57
2023-05-21T12:38:11.481Z,7.00
2023-05-21T12:40:39.623Z,7.72
2023-05-21T12:43:07.305Z,6.70
2023-05-21T12:45:34.318Z,5.47
2023-05-21T12:48:04.694Z,7.65
2023-05-21T12:50:32.722Z,7.70
2023-05-21T12:52:59.669Z,7.53
2023-05-21T12:55:26.564Z,9.23
2023-05-21T12:58:04.251Z,10.32
2023-05-21T13:00:32.352Z,8.15
2023-05-21T13:02:59.288Z,8.52
2023-05-21T13:05:26.321Z,7.40
2023-05-21T13:07:53.261Z,11.45
2023-05-21T13:10:20.218Z,6.68
2023-05-21T13:12:47.206Z,6.72
2023-05-21T13:15:14.522Z,6.55
2023-05-21T13:17:41.545Z,6.45
2023-05-21T13:20:09.567Z,6.43
2023-05-21T13:22:47.190Z,6.90
2023-05-21T13:25:18.354Z,7.80
2023-05-21T13:27:45.293Z,5.53
2023-05-21T13:30:12.440Z,6.70
2023-05-21T13:32:40.285Z,5.60
2023-05-21T13:35:07.719Z,4.93
2023-05-21T13:37:34.908Z,4.85
2023-05-21T13:40:06.167Z,4.97
2023-05-21T13:42:34.160Z,5.60
2023-05-21T13:45:01.138Z,3.30
2023-05-21T13:47:28.108Z,3.38
2023-05-21T13:49:55.146Z,5.90
2023-05-21T13:52:22.028Z,2.95
2023-05-21T13:54:48.966Z,3.15
2023-05-21T13:57:15.968Z,2.85
2023-05-21T13:59:42.984Z,3.05
2023-05-21T14:02:10.307Z,3.72
2023-05-21T14:04:39.277Z,2.60
2023-05-21T14:07:06.843Z,2.67
2023-05-21T14:09:33.958Z,3.33
2023-05-21T14:12:00.917Z,2.78
2023-05-21T14:14:27.796Z,3.30
2023-05-21T14:16:55.010Z,3.00
2023-05-21T14:19:22.076Z,3.13
2023-05-21T14:21:51.768Z,2.80
2023-05-21T14:24:19.291Z,2.90
2023-05-21T14:26:46.238Z,3.08
2023-05-21T14:29:14.299Z,4.15
2023-05-21T14:31:41.264Z,4.20
2023-05-21T14:34:08.235Z,3.78
2023-05-21T14:36:35.368Z,3.80
2023-05-21T14:39:02.370Z,5.30
2023-05-21T14:41:29.599Z,5.88
2023-05-21T14:43:56.541Z,6.45
2023-05-21T14:46:23.484Z,6.25
2023-05-21T14:48:50.482Z,5.57
2023-05-21T14:51:17.382Z,5.30
2023-05-21T14:53:44.273Z,6.43
2023-05-21T14:56:11.238Z,6.82
2023-05-21T14:58:38.206Z,5.05
2023-05-21T15:01:05.316Z,4.75
2023-05-21T15:03:32.346Z,4.55
2023-05-21T15:05:59.288Z,4.72
2023-05-21T15:08:26.298Z,5.38
2023-05-21T15:10:53.245Z,5.85
2023-05-21T15:13:20.161Z,4.32
2023-05-21T15:15:47.103Z,5.18
2023-05-21T15:18:14.046Z,4.78
2023-05-21T15:20:41.028Z,5.15
2023-05-21T15:23:16.643Z,5.47
2023-05-21T15:25:45.183Z,6.30
2023-05-21T15:28:12.458Z,7.15
2023-05-21T15:30:39.999Z,4.53
2023-05-21T15:33:06.962Z,5.15
2023-05-21T15:35:36.241Z,3.83
2023-05-21T15:38:03.661Z,4.85
2023-05-21T15:40:31.945Z,4.38
2023-05-21T15:42:58.920Z,5.50
2023-05-21T15:45:25.878Z,3.88
2023-05-21T15:47:52.979Z,5.25
2023-05-21T15:50:19.984Z,4.47
2023-05-21T15:52:46.880Z,4.78
2023-05-21T15:55:13.769Z,4.85
2023-05-21T15:57:40.749Z,4.15
2023-05-21T16:00:09.508Z,4.07
2023-05-21T16:02:36.620Z,3.53
2023-05-21T16:05:03.868Z,3.72
2023-05-21T16:07:30.865Z,3.78
2023-05-21T16:09:57.949Z,4.32
2023-05-21T16:12:24.963Z,5.25
2023-05-21T16:14:51.954Z,5.05
2023-05-21T16:17:19.013Z,4.50
2023-05-21T16:19:45.947Z,6.03
2023-05-21T16:22:12.944Z,3.67
2023-05-21T16:24:39.890Z,3.75
2023-05-21T16:27:06.815Z,3.55
2023-05-21T16:29:33.676Z,3.60
2023-05-21T16:32:00.712Z,4.18
2023-05-21T16:34:27.730Z,3.45
2023-05-21T16:36:54.757Z,3.83
2023-05-21T16:39:21.693Z,3.80
2023-05-21T16:41:48.642Z,3.90
2023-05-21T16:44:15.621Z,5.25
2023-05-21T16:46:42.758Z,4.05
2023-05-21T16:49:09.726Z,4.63
2023-05-21T16:51:36.690Z,3.83
2023-05-21T16:54:03.708Z,2.95
2023-05-21T16:56:31.298Z,3.50
2023-05-21T16:58:58.265Z,4.50
2023-05-21T17:01:25.369Z,4.43
2023-05-21T17:03:52.804Z,5.35
2023-05-21T17:06:19.898Z,5.95
2023-05-21T17:08:47.086Z,5.20
2023-05-21T17:11:14.033Z,8.05
2023-05-21T17:13:41.003Z,8.13
2023-05-21T17:16:08.028Z,8.50
2023-05-21T17:18:35.030Z,10.80
2023-05-21T17:21:01.947Z,8.25
2023-05-21T17:23:28.905Z,4.68
2023-05-21T17:25:55.863Z,3.75
2023-05-21T17:28:22.931Z,3.45
2023-05-21T17:30:50.019Z,3.55
2023-05-21T17:33:17.031Z,5.10
2023-05-21T17:35:44.084Z,3.92
2023-05-21T17:38:11.082Z,3.30
2023-05-21T17:40:38.070Z,3.83
2023-05-21T17:43:05.248Z,2.90
2023-05-21T17:45:32.303Z,3.72
2023-05-21T17:48:00.557Z,6.10
2023-05-21T17:50:27.943Z,8.25
2023-05-21T17:52:54.898Z,11.63
2023-05-21T17:55:21.840Z,6.00
2023-05-21T17:57:48.766Z,4.75
2023-05-21T18:00:15.973Z,4.00
2023-05-21T18:02:43.005Z,3.80
2023-05-21T18:05:09.997Z,4.85
2023-05-21T18:07:38.108Z,4.35
2023-05-21T18:10:06.399Z,5.40
2023-05-21T18:12:33.304Z,6.95
2023-05-21T18:15:00.274Z,5.18
2023-05-21T18:17:27.183Z,4.50
2023-05-21T18:19:54.096Z,10.32
2023-05-21T18:22:20.976Z,8.70
2023-05-21T18:24:47.938Z,7.38
2023-05-21T18:27:14.916Z,7.00
2023-05-21T18:29:41.861Z,4.95
2023-05-21T18:32:09.023Z,5.05
2023-05-21T18:34:35.916Z,5.38
2023-05-21T18:37:02.913Z,5.13
2023-05-21T18:39:29.842Z,4.43
2023-05-21T18:44:26.602Z,5.35
2023-05-21T18:46:55.137Z,5.03
2023-05-21T18:49:23.309Z,5.28
2023-05-21T18:51:50.277Z,5.18
2023-05-21T18:54:17.248Z,4.82
2023-05-21T18:56:44.300Z,4.85
2023-05-21T18:59:11.293Z,4.93
2023-05-21T19:01:38.316Z,8.43
2023-05-21T19:04:05.453Z,4.88
2023-05-21T19:06:32.403Z,6.10
2023-05-21T19:08:59.341Z,5.35
2023-05-21T19:11:26.917Z,5.20
2023-05-21T19:13:53.905Z,5.78
2023-05-21T19:16:20.885Z,4.68
2023-05-21T19:18:47.824Z,5.18
2023-05-21T19:21:14.804Z,4.45
2023-05-21T19:23:52.102Z,5.32
2023-05-21T19:26:21.608Z,6.18
2023-05-21T19:28:48.597Z,5.93
2023-05-21T19:31:15.550Z,5.82
2023-05-21T19:33:42.585Z,5.43
2023-05-21T19:36:09.590Z,6.45
2023-05-21T19:38:36.495Z,8.90
2023-05-21T19:41:03.414Z,10.48
2023-05-21T19:43:30.356Z,11.30
2023-05-21T19:45:57.290Z,10.10
2023-05-21T19:48:24.241Z,7.80
2023-05-21T19:50:51.197Z,6.07
2023-05-21T19:53:18.146Z,8.65
2023-05-21T19:55:45.089Z,6.18
2023-05-21T19:58:12.034Z,7.47
2023-05-21T20:00:39.053Z,6.30
2023-05-21T20:03:06.113Z,7.88
2023-05-21T20:05:33.008Z,8.50
2023-05-21T20:08:00.006Z,8.20
2023-05-21T20:10:26.943Z,6.25
2023-05-21T20:12:53.854Z,6.80
2023-05-21T20:15:20.834Z,5.90
2023-05-21T20:17:47.787Z,6.53
2023-05-21T20:20:14.832Z,5.78
2023-05-21T20:22:41.763Z,5.43
2023-05-21T20:25:09.216Z,7.45
2023-05-21T20:27:36.263Z,6.30
2023-05-21T20:30:03.400Z,6.60
2023-05-21T20:32:30.404Z,6.43
2023-05-21T20:35:03.487Z,6.15
2023-05-21T20:37:31.234Z,7.78
2023-05-21T20:39:58.421Z,10.38
2023-05-21T20:42:26.442Z,5.85
2023-05-21T20:44:53.352Z,6.93
2023-05-21T20:47:20.292Z,5.97
2023-05-21T20:49:47.604Z,5.97
2023-05-21T20:52:14.892Z,6.10
2023-05-21T20:54:41.817Z,6.97
2023-05-21T20:57:08.747Z,6.03
2023-05-21T20:59:35.688Z,7.25
2023-05-21T21:02:02.627Z,8.18
2023-05-21T21:04:29.568Z,6.45
2023-05-21T21:06:56.450Z,7.32
2023-05-21T21:09:23.454Z,7.45
2023-05-21T21:11:50.412Z,6.32
2023-05-21T21:14:17.402Z,6.78
2023-05-21T21:16:44.365Z,6.25
2023-05-21T21:19:11.386Z,5.50
2023-05-21T21:21:38.416Z,5.50
2023-05-21T21:24:06.135Z,6.20
2023-05-21T21:26:33.039Z,5.65
2023-05-21T21:28:59.937Z,6.40
2023-05-21T21:31:26.904Z,6.40
2023-05-21T21:33:54.264Z,6.88
2023-05-21T21:36:21.286Z,7.13
2023-05-21T21:38:48.274Z,6.75
2023-05-21T21:41:15.325Z,6.55
2023-05-21T21:43:42.278Z,6.90
2023-05-21T21:46:09.383Z,7.57
2023-05-21T21:48:36.356Z,7.25
2023-05-21T21:51:03.384Z,8.88
2023-05-21T21:53:30.347Z,7.28
2023-05-21T21:55:57.331Z,7.68
2023-05-21T21:58:24.225Z,7.95
2023-05-21T22:00:51.248Z,8.90
2023-05-21T22:03:18.210Z,8.40
2023-05-21T22:05:45.326Z,7.30
2023-05-21T22:08:12.262Z,8.25
2023-05-21T22:10:39.531Z,10.60
2023-05-21T22:13:06.651Z,7.95
2023-05-21T22:15:33.572Z,7.05
2023-05-21T22:18:01.097Z,8.18
2023-05-21T22:20:28.780Z,9.10
2023-05-21T22:22:56.915Z,25.13
2023-05-21T22:28:59.602Z,27.77
2023-05-21T22:31:26.666Z,18.48
2023-05-21T22:33:53.681Z,15.70
2023-05-21T22:36:20.680Z,11.32
2023-05-21T22:38:47.632Z,11.45
2023-05-21T22:41:17.617Z,10.00
2023-05-21T22:43:44.512Z,8.85
2023-05-21T22:46:11.442Z,13.45
2023-05-21T22:48:38.464Z,11.20
2023-05-21T22:51:05.488Z,11.20
2023-05-21T22:53:33.339Z,10.43
2023-05-21T22:56:00.909Z,10.00
2023-05-21T22:58:27.922Z,8.20
2023-05-21T23:00:54.853Z,9.43
2023-05-21T23:03:21.856Z,8.38
2023-05-21T23:05:49.009Z,9.40
2023-05-21T23:08:16.028Z,8.00
2023-05-21T23:10:43.019Z,8.88
2023-05-21T23:13:10.064Z,10.98
2023-05-21T23:15:36.993Z,11.57
2023-05-21T23:18:04.211Z,11.27
2023-05-21T23:20:31.778Z,11.40
2023-05-21T23:22:58.770Z,10.50
2023-05-21T23:25:25.687Z,9.05
2023-05-21T23:27:52.605Z,8.75
2023-05-21T23:30:19.542Z,10.18
2023-05-21T23:32:46.582Z,9.52
2023-05-21T23:35:13.643Z,9.55
2023-05-21T23:37:40.591Z,8.98
2023-05-21T23:40:08.622Z,10.55
2023-05-21T23:42:36.005Z,8.20
2023-05-21T23:45:03.510Z,8.85
2023-05-21T23:47:30.685Z,7.40
2023-05-21T23:49:57.655Z,9.98
2023-05-21T23:52:24.578Z,10.73
2023-05-21T23:54:51.541Z,9.70
2023-05-21T23:57:18.514Z,10.68
2023-05-21T23:59:45.628Z,10.48
